Time;durP1;ratioP1;P1;durP2;ratioP2;P2;SDS_P1;SDS_P2;PMS_P1;PMS_P2;Temp;Humidity;BMP_temperature;BMP_pressure;BME280_temperature;BME280_humidity;BME280_pressure;Samples;Min_cycle;Max_cycle;Signal;HPM_P1;HPM_P2
2023/04/01 00:00:56;;;;;;;;;0.00;0.00;;;;;10.80;100.00;99261.94;5118735;27;45295;-65
2023/04/01 00:03:22;;;;;;;;;0.00;0.00;;;;;10.68;100.00;99240.63;5119669;27;45531;-65
2023/04/01 00:05:48;;;;;;;;;0.75;0.00;;;;;10.91;100.00;99279.00;5122326;27;45347;-65
2023/04/01 00:08:14;;;;;;;;;2.00;0.50;;;;;10.83;100.00;99271.47;5121776;27;45229;-65
2023/04/01 00:10:39;;;;;;;;;2.00;0.00;;;;;10.85;100.00;99269.63;5122207;27;45464;-65
2023/04/01 00:13:05;;;;;;;;;1.50;0.25;;;;;10.88;100.00;99285.28;5121789;27;45647;-65
2023/04/01 00:15:31;;;;;;;;;2.50;1.00;;;;;10.89;100.00;99279.09;5121094;27;45433;-65
2023/04/01 00:17:57;;;;;;;;;3.25;1.00;;;;;10.90;100.00;99279.94;5121840;27;45293;-66
2023/04/01 00:20:22;;;;;;;;;1.25;0.00;;;;;10.90;100.00;99280.78;5121681;27;45288;-65
2023/04/01 00:22:48;;;;;;;;;1.00;1.00;;;;;10.80;100.00;99264.59;5121842;27;45727;-65
2023/04/01 00:25:16;;;;;;;;;0.50;0.50;;;;;10.89;100.00;99275.56;5122006;27;45290;-65
2023/04/01 00:27:41;;;;;;;;;1.25;1.00;;;;;10.93;100.00;99293.78;5121899;27;45387;-65
2023/04/01 00:30:07;;;;;;;;;0.00;0.00;;;;;10.91;100.00;99286.91;5122045;27;45372;-65
2023/04/01 00:32:34;;;;;;;;;2.00;1.00;;;;;10.93;100.00;99288.50;5121520;27;46975;-65
2023/04/01 00:35:00;;;;;;;;;3.00;1.00;;;;;10.88;100.00;99290.53;5121798;27;45496;-65
2023/04/01 00:37:26;;;;;;;;;2.00;0.00;;;;;10.97;100.00;99305.03;5121986;27;45353;-66
2023/04/01 00:39:52;;;;;;;;;0.25;0.25;;;;;10.92;100.00;99301.75;5121720;27;45463;-65
2023/04/01 00:42:19;;;;;;;;;4.50;1.00;;;;;10.92;100.00;99309.66;5120024;27;46532;-65
2023/04/01 00:44:47;;;;;;;;;3.00;0.25;;;;;10.88;100.00;99289.69;5121321;27;45523;-65
2023/04/01 00:47:13;;;;;;;;;2.50;1.50;;;;;10.95;100.00;99317.44;5121370;27;45552;-65
2023/04/01 00:49:42;;;;;;;;;0.00;0.00;;;;;10.91;100.00;99310.59;5121833;27;45290;-65
2023/04/01 00:52:11;;;;;;;;;0.25;0.25;;;;;10.92;100.00;99322.81;5121095;27;46433;-65
2023/04/01 00:54:38;;;;;;;;;1.25;1.00;;;;;10.99;100.00;99337.41;5121262;27;45390;-65
2023/04/01 00:57:09;;;;;;;;;0.25;0.25;;;;;11.00;100.00;99333.03;5121454;27;45164;-65
2023/04/01 00:59:43;;;;;;;;;1.00;1.00;;;;;10.98;100.00;99335.72;5121486;27;45337;-65
2023/04/01 01:02:11;;;;;;;;;2.25;1.00;;;;;11.06;100.00;99345.88;5121040;27;47329;-65
2023/04/01 01:04:37;;;;;;;;;1.75;1.75;;;;;11.02;100.00;99329.38;5121285;27;45412;-65
2023/04/01 01:07:21;;;;;;;;;2.50;2.25;;;;;11.12;100.00;99343.84;5121201;27;45310;-65
2023/04/01 01:10:39;;;;;;;;;2.00;2.00;;;;;11.05;100.00;99339.78;5121427;27;45389;-65
2023/04/01 01:13:34;;;;;;;;;3.00;2.75;;;;;11.15;100.00;99341.03;5077533;27;46352;-65
2023/04/01 01:16:22;;;;;;;;;2.00;2.00;;;;;11.17;100.00;99343.59;5076797;28;45362;-65
2023/04/01 01:18:55;;;;;;;;;3.00;1.25;;;;;11.20;100.00;99348.72;5017251;28;45338;-65
2023/04/01 01:21:29;;;;;;;;;1.50;1.50;;;;;11.21;100.00;99354.84;5017678;28;45399;-65
2023/04/01 01:24:07;;;;;;;;;2.00;2.00;;;;;11.22;100.00;99346.84;5017077;28;47105;-65
2023/04/01 01:26:44;;;;;;;;;1.75;1.00;;;;;11.23;100.00;99358.28;5017110;28;45595;-65
2023/04/01 01:29:31;;;;;;;;;1.25;1.25;;;;;11.22;100.00;99351.28;5017219;28;45358;-65
2023/04/01 01:32:34;;;;;;;;;2.75;2.00;;;;;11.23;100.00;99358.28;5016858;28;45618;-65
2023/04/01 01:35:17;;;;;;;;;1.00;0.00;;;;;11.25;100.00;99359.88;5017017;28;46057;-65
2023/04/01 01:37:45;;;;;;;;;1.25;1.00;;;;;11.21;100.00;99354.84;5016993;28;45460;-65
2023/04/01 01:40:12;;;;;;;;;2.00;2.00;;;;;11.23;100.00;99359.09;5016939;28;45284;-65
2023/04/01 01:42:43;;;;;;;;;1.00;1.00;;;;;11.25;100.00;99367.78;5017411;28;45453;-65
2023/04/01 01:45:12;;;;;;;;;1.00;1.00;;;;;11.23;100.00;99364.38;5077005;28;46774;-65
2023/04/01 01:47:40;;;;;;;;;2.25;2.00;;;;;11.23;100.00;99371.44;5076912;28;45340;-65
2023/04/01 01:50:07;;;;;;;;;3.00;1.25;;;;;11.20;100.00;99364.53;5077233;28;45431;-65
2023/04/01 01:52:33;;;;;;;;;7.00;3.00;;;;;11.20;100.00;99366.31;5077319;28;45460;-65
2023/04/01 01:54:58;;;;;;;;;1.75;1.75;;;;;11.20;100.00;99363.69;5083429;27;46291;-65
2023/04/01 01:57:31;;;;;;;;;2.00;2.00;;;;;11.20;100.00;99374.22;5120044;27;45386;-65
2023/04/01 02:00:07;;;;;;;;;3.00;3.00;;;;;11.23;100.00;99388.09;5120372;27;45422;-66
2023/04/01 02:02:33;;;;;;;;;4.50;1.50;;;;;11.27;100.00;99397.56;5120809;27;45330;-66
2023/04/01 02:04:59;;;;;;;;;4.75;4.00;;;;;11.31;100.00;99407.03;5120071;27;45429;-66
2023/04/01 02:07:31;;;;;;;;;3.00;3.00;;;;;11.31;100.00;99403.53;5120138;27;45941;-65
2023/04/01 02:09:56;;;;;;;;;4.75;3.25;;;;;11.24;100.00;99402.09;5119928;27;45423;-65
2023/04/01 02:12:24;;;;;;;;;3.25;3.00;;;;;11.28;100.00;99415.09;5120281;27;45484;-65
2023/04/01 02:14:54;;;;;;;;;4.00;2.00;;;;;11.32;100.00;99418.41;5119892;27;46380;-65
2023/04/01 02:17:22;;;;;;;;;4.00;3.00;;;;;11.31;100.00;99414.94;5119727;27;45459;-66
2023/04/01 02:19:51;;;;;;;;;3.25;2.00;;;;;11.32;100.00;99413.16;5120163;27;45315;-65
2023/04/01 02:22:30;;;;;;;;;3.50;2.25;;;;;11.31;100.00;99425.47;5120029;27;45222;-65
2023/04/01 02:25:06;;;;;;;;;3.25;3.00;;;;;11.32;100.00;99437.72;5099386;27;45455;-65
2023/04/01 02:27:32;;;;;;;;;4.00;2.00;;;;;11.32;100.00;99436.88;5099218;27;45437;-65
2023/04/01 02:29:58;;;;;;;;;3.75;3.75;;;;;11.27;100.00;99431.81;5099331;27;45455;-65
2023/04/01 02:32:24;;;;;;;;;3.50;2.50;;;;;11.27;99.89;99430.94;5099371;27;45454;-65
2023/04/01 02:34:51;;;;;;;;;3.75;3.00;;;;;11.28;100.00;99424.75;5099078;27;46270;-65
2023/04/01 02:37:17;;;;;;;;;4.00;2.75;;;;;11.26;99.33;99430.09;5099546;27;45328;-65
2023/04/01 02:39:42;;;;;;;;;5.00;3.75;;;;;11.26;99.78;99431.91;5119571;27;45457;-65
2023/04/01 02:42:08;;;;;;;;;3.25;3.25;;;;;11.26;99.46;99435.38;5119921;27;45224;-65
2023/04/01 02:44:34;;;;;;;;;4.75;2.00;;;;;11.35;98.41;99449.06;5119565;27;46368;-65
2023/04/01 02:46:59;;;;;;;;;2.50;2.50;;;;;11.30;98.81;99441.38;5119327;27;45252;-65
2023/04/01 02:49:24;;;;;;;;;6.25;3.00;;;;;11.27;98.50;99433.59;5119606;27;45354;-65
2023/04/01 02:51:51;;;;;;;;;8.25;4.25;;;;;11.25;97.86;99445.97;5119452;27;45512;-65
2023/04/01 02:54:17;;;;;;;;;2.75;2.75;;;;;11.25;98.87;99448.63;5119079;27;47357;-65
2023/04/01 02:56:42;;;;;;;;;5.75;4.00;;;;;11.28;98.52;99459.00;5119400;27;45309;-65
2023/04/01 02:59:08;;;;;;;;;5.00;4.00;;;;;11.22;98.32;99451.41;5119537;27;45395;-65
2023/04/01 03:01:33;;;;;;;;;4.00;2.25;;;;;11.28;98.47;99461.66;5119501;27;45366;-65
2023/04/01 03:03:58;;;;;;;;;3.50;2.00;;;;;11.17;99.24;99443.72;5119284;27;45744;-65
2023/04/01 03:06:24;;;;;;;;;5.00;2.00;;;;;11.31;98.27;99474.69;5119224;27;45477;-66
2023/04/01 03:08:49;;;;;;;;;6.50;4.00;;;;;11.32;98.41;99477.25;5119082;27;45362;-65
2023/04/01 03:11:15;;;;;;;;;4.25;4.00;;;;;11.32;98.76;99468.50;5119324;27;45467;-65
2023/04/01 03:13:40;;;;;;;;;4.50;4.00;;;;;11.32;97.61;99482.50;5119014;27;46975;-65
2023/04/01 03:16:06;;;;;;;;;5.25;3.75;;;;;11.37;97.72;99494.63;5118967;27;45363;-65
2023/04/01 03:18:31;;;;;;;;;4.00;4.00;;;;;11.31;97.23;99494.00;5119155;27;45339;-65
2023/04/01 03:20:57;;;;;;;;;7.00;4.00;;;;;11.31;97.45;99504.53;5119429;27;45351;-65
2023/04/01 03:23:24;;;;;;;;;7.25;4.00;;;;;11.19;96.69;99480.53;5118040;27;45832;-65
2023/04/01 03:25:49;;;;;;;;;4.00;4.00;;;;;11.32;96.70;99513.28;5119033;27;45274;-66
2023/04/01 03:28:14;;;;;;;;;4.50;4.50;;;;;11.27;97.25;99513.50;5118814;27;45519;-65
2023/04/01 03:30:40;;;;;;;;;7.75;6.50;;;;;11.28;96.54;99515.22;5118964;27;45473;-65
2023/04/01 03:33:06;;;;;;;;;5.50;4.00;;;;;11.22;96.34;99504.94;5118599;27;45891;-65
2023/04/01 03:35:31;;;;;;;;;5.25;4.25;;;;;11.16;96.52;99497.31;5118729;27;45491;-65
2023/04/01 03:37:57;;;;;;;;;7.00;5.00;;;;;11.19;96.24;99501.59;5118262;27;45419;-65
2023/04/01 03:40:22;;;;;;;;;5.75;4.50;;;;;11.25;96.25;99517.97;5118785;27;45321;-65
2023/04/01 03:42:49;;;;;;;;;6.25;5.00;;;;;11.30;95.94;99516.00;5118464;27;45444;-65
2023/04/01 03:45:14;;;;;;;;;5.00;5.00;;;;;11.28;96.59;99514.34;5118359;27;45770;-65
2023/04/01 03:47:40;;;;;;;;;5.00;4.00;;;;;11.31;96.05;99532.66;5118569;27;45385;-65
2023/04/01 03:50:06;;;;;;;;;4.50;4.00;;;;;11.30;95.77;99531.81;5118944;27;45306;-65
2023/04/01 03:52:33;;;;;;;;;5.25;5.00;;;;;11.27;96.73;99515.25;5117524;27;46645;-65
2023/04/01 03:54:58;;;;;;;;;4.75;4.75;;;;;11.25;95.68;99522.41;5118431;27;45401;-65
2023/04/01 03:57:23;;;;;;;;;6.00;5.25;;;;;11.25;96.16;99525.88;5118674;27;45359;-65
2023/04/01 03:59:49;;;;;;;;;6.00;6.00;;;;;11.30;96.12;99537.06;5118346;27;45254;-65
2023/04/01 04:02:14;;;;;;;;;4.25;4.00;;;;;11.25;96.62;99528.50;5114513;27;46068;-65
2023/04/01 04:04:40;;;;;;;;;7.75;7.00;;;;;11.26;96.92;99540.78;5118591;27;45290;-65
2023/04/01 04:07:06;;;;;;;;;13.67;12.33;;;;;11.30;97.27;99550.25;5118542;27;45342;-65
2023/04/01 04:09:33;;;;;;;;;5.75;4.75;;;;;11.24;95.95;99533.84;5117508;27;45390;-65
2023/04/01 04:11:59;;;;;;;;;7.00;6.00;;;;;11.29;97.02;99552.97;5117629;27;45436;-65
2023/04/01 04:14:24;;;;;;;;;5.00;4.75;;;;;11.30;97.47;99552.88;5118276;27;45543;-65
2023/04/01 04:16:49;;;;;;;;;6.00;4.75;;;;;11.32;96.55;99558.09;5118432;27;45240;-65
2023/04/01 04:19:15;;;;;;;;;10.75;7.00;;;;;11.31;96.84;99559.00;5118474;27;45921;-65
2023/04/01 04:21:41;;;;;;;;;9.00;7.00;;;;;11.35;97.63;99565.84;5118353;27;45516;-65
2023/04/01 04:24:06;;;;;;;;;9.33;8.00;;;;;11.36;97.86;99570.22;5117458;27;45463;-65
2023/04/01 04:26:32;;;;;;;;;8.25;7.00;;;;;11.31;97.75;99561.63;5118198;27;45364;-65
2023/04/01 04:28:57;;;;;;;;;5.00;5.00;;;;;11.38;98.43;99570.97;5118440;27;45229;-65
2023/04/01 04:31:24;;;;;;;;;9.33;7.67;;;;;11.39;98.72;99580.59;5117318;27;45392;-65
2023/04/01 04:33:51;;;;;;;;;6.75;5.00;;;;;11.39;97.52;99574.50;5097475;27;45367;-66
2023/04/01 04:36:17;;;;;;;;;7.75;6.75;;;;;11.15;97.16;99537.75;5097542;27;45340;-65
2023/04/01 04:38:42;;;;;;;;;5.50;5.50;;;;;11.32;96.99;99558.09;5097745;27;45351;-65
2023/04/01 04:41:12;;;;;;;;;6.25;6.25;;;;;11.42;97.21;99595.44;5097139;27;45326;-66
2023/04/01 04:43:38;;;;;;;;;5.00;5.00;;;;;11.42;96.88;99591.00;5112677;27;45325;-65
2023/04/01 04:46:08;;;;;;;;;11.00;8.33;;;;;11.27;97.14;99575.88;5111430;27;45373;-65
2023/04/01 04:48:33;;;;;;;;;9.75;6.75;;;;;11.39;97.20;99583.25;5109188;27;45296;-65
2023/04/01 04:50:58;;;;;;;;;9.00;7.67;;;;;11.31;97.17;99572.19;5119903;27;46347;-65
2023/04/01 04:53:25;;;;;;;;;7.75;5.00;;;;;11.28;97.48;99578.47;5121330;27;45367;-65
2023/04/01 04:55:50;;;;;;;;;11.00;8.00;;;;;11.37;97.25;99592.13;5121262;27;45612;-65
2023/04/01 04:58:17;;;;;;;;;7.00;7.00;;;;;11.45;97.39;99597.94;5120032;27;45500;-65
2023/04/01 05:00:43;;;;;;;;;11.00;9.25;;;;;11.42;98.43;99606.81;5120929;27;46534;-65
2023/04/01 05:03:09;;;;;;;;;7.00;7.00;;;;;11.41;96.60;99597.19;5120605;27;45482;-65
2023/04/01 05:05:34;;;;;;;;;9.50;6.00;;;;;11.41;96.88;99607.75;5119152;27;45330;-65
2023/04/01 05:08:00;;;;;;;;;7.00;7.00;;;;;11.44;96.40;99614.66;5109783;27;45511;-65
2023/04/01 05:10:25;;;;;;;;;8.50;5.50;;;;;11.17;96.94;99588.63;5099011;27;47631;-65
2023/04/01 05:12:51;;;;;;;;;7.00;7.00;;;;;11.34;96.06;99614.19;5100540;27;45472;-65
2023/04/01 05:15:16;;;;;;;;;10.75;7.25;;;;;11.29;96.60;99616.19;5101018;27;45498;-65
2023/04/01 05:17:41;;;;;;;;;8.50;8.00;;;;;11.29;96.86;99621.47;5120963;27;45284;-65
2023/04/01 05:20:07;;;;;;;;;9.00;7.00;;;;;11.35;96.22;99639.66;5120955;27;45639;-65
2023/04/01 05:22:33;;;;;;;;;10.00;7.25;;;;;11.35;96.77;99638.81;5121092;27;45423;-65
2023/04/01 05:24:58;;;;;;;;;10.25;8.00;;;;;11.32;95.99;99638.00;5121150;27;45309;-65
2023/04/01 05:27:24;;;;;;;;;8.25;7.00;;;;;11.34;96.68;99648.47;5108071;27;45253;-65
2023/04/01 05:29:49;;;;;;;;;8.67;8.67;;;;;11.33;96.70;99644.97;5120865;27;46058;-65
2023/04/01 05:32:15;;;;;;;;;8.00;7.00;;;;;11.32;96.32;99642.41;5120485;27;45451;-65
2023/04/01 05:34:40;;;;;;;;;12.50;7.00;;;;;11.31;96.43;99653.88;5120765;27;45339;-65
2023/04/01 05:37:07;;;;;;;;;11.00;10.33;;;;;11.31;96.85;99640.69;5121054;27;45296;-65
2023/04/01 05:39:37;;;;;;;;;6.75;6.50;;;;;11.29;96.25;99642.56;5120047;27;46306;-65
2023/04/01 05:42:03;;;;;;;;;9.25;7.50;;;;;11.26;95.15;99640.91;5120407;27;45348;-65
2023/04/01 05:44:28;;;;;;;;;8.75;8.75;;;;;11.31;95.36;99652.13;5120337;27;45504;-65
2023/04/01 05:46:54;;;;;;;;;8.67;7.00;;;;;11.30;95.08;99660.94;5116861;27;45375;-65
2023/04/01 05:49:19;;;;;;;;;11.00;7.00;;;;;11.29;95.07;99668.91;5119150;27;47314;-65
2023/04/01 05:51:44;;;;;;;;;10.00;8.00;;;;;11.27;95.13;99657.56;5116059;27;45330;-65
2023/04/01 05:54:10;;;;;;;;;8.00;7.33;;;;;11.24;94.93;99663.84;5120229;27;45370;-65
2023/04/01 05:56:35;;;;;;;;;9.50;7.75;;;;;11.26;95.16;99669.03;5112884;27;45321;-64
2023/04/01 05:59:00;;;;;;;;;9.67;8.33;;;;;11.04;95.00;99630.44;5115182;27;45432;-64
2023/04/01 06:01:26;;;;;;;;;10.33;10.00;;;;;11.27;94.99;99676.00;5119879;27;45368;-65
2023/04/01 06:03:51;;;;;;;;;10.25;7.50;;;;;11.09;94.66;99652.16;5120274;27;45266;-65
2023/04/01 06:06:36;;;;;;;;;12.67;10.00;;;;;11.28;94.04;99681.22;5120495;27;45388;-65
2023/04/01 06:09:17;;;;;;;;;14.50;9.75;;;;;11.27;94.19;99676.88;5119971;27;46302;-65
2023/04/01 06:12:07;;;;;;;;;10.33;9.00;;;;;11.31;93.59;99696.03;5119760;27;45294;-65
2023/04/01 06:14:57;;;;;;;;;8.00;8.00;;;;;11.29;94.18;99697.91;5120405;27;45283;-65
2023/04/01 06:17:25;;;;;;;;;13.00;10.00;;;;;11.30;94.16;99702.25;5120185;27;45434;-65
2023/04/01 06:20:23;;;;;;;;;7.25;5.50;;;;;11.30;93.67;99710.16;5119563;27;46287;-64
2023/04/01 06:23:00;;;;;;;;;8.33;8.33;;;;;11.31;93.94;99701.31;5119090;27;45223;-65
2023/04/01 06:25:58;;;;;;;;;12.00;10.00;;;;;11.31;93.59;99712.72;5116568;27;45507;-65
2023/04/01 06:28:39;;;;;;;;;12.00;10.50;;;;;11.26;94.13;99703.28;5118395;27;45438;-65
2023/04/01 06:31:27;;;;;;;;;14.00;11.00;;;;;11.31;93.47;99709.22;5118748;27;45545;-65
2023/04/01 06:34:11;;;;;;;;;16.33;12.00;;;;;11.30;93.61;99712.78;5119392;27;45295;-64
2023/04/01 06:37:02;;;;;;;;;8.00;6.67;;;;;11.31;94.06;99714.47;5119831;27;45303;-64
2023/04/01 06:39:53;;;;;;;;;10.67;10.00;;;;;11.27;93.95;99707.63;5076271;28;45330;-65
2023/04/01 06:42:42;;;;;;;;;15.00;8.00;;;;;11.33;93.66;99713.50;5075025;27;45461;-65
2023/04/01 06:46:00;;;;;;;;;13.00;13.00;;;;;11.28;93.79;99714.63;5076374;28;45350;-65
2023/04/01 06:48:56;;;;;;;;;11.00;8.00;;;;;11.30;93.68;99733.88;4993574;28;45512;-65
2023/04/01 06:51:44;;;;;;;;;18.33;13.00;;;;;11.24;93.55;99715.66;4996275;28;45485;-65
2023/04/01 06:54:15;;;;;;;;;9.67;9.00;;;;;11.29;93.95;99724.25;4995785;28;46562;-65
2023/04/01 06:56:46;;;;;;;;;11.33;10.67;;;;;11.41;93.45;99734.25;4995683;28;45396;-65
2023/04/01 06:59:24;;;;;;;;;8.33;6.67;;;;;11.47;93.09;99736.66;4996106;28;45250;-65
2023/04/01 07:01:54;;;;;;;;;8.75;8.75;;;;;11.54;91.80;99739.84;4995410;28;45681;-65
2023/04/01 07:04:29;;;;;;;;;8.67;8.67;;;;;11.45;91.47;99725.28;4995550;28;46212;-65
2023/04/01 07:07:10;;;;;;;;;7.25;7.25;;;;;11.49;90.85;99729.53;4995856;28;45283;-65
2023/04/01 07:09:40;;;;;;;;;10.75;7.00;;;;;11.60;90.85;99742.25;4995533;28;45541;-65
2023/04/01 07:12:44;;;;;;;;;7.00;7.00;;;;;11.58;90.23;99745.88;4995722;28;45411;-65
2023/04/01 07:15:22;;;;;;;;;7.50;7.00;;;;;11.55;89.29;99751.28;4945176;28;47314;-64
2023/04/01 07:17:54;;;;;;;;;7.25;5.50;;;;;11.49;89.75;99758.50;4994414;28;45404;-64
2023/04/01 07:20:34;;;;;;;;;6.00;5.00;;;;;11.46;90.08;99757.81;4995838;28;45375;-64
2023/04/01 07:23:04;;;;;;;;;7.25;6.75;;;;;11.47;89.83;99762.13;4994068;28;45433;-64
2023/04/01 07:25:35;;;;;;;;;5.00;5.00;;;;;11.48;88.98;99769.13;5038904;28;46264;-65
2023/04/01 07:28:06;;;;;;;;;5.00;5.00;;;;;11.43;89.13;99779.88;5054548;28;45290;-65
2023/04/01 07:30:44;;;;;;;;;4.00;2.75;;;;;11.26;89.12;99756.00;5054894;28;45412;-64
2023/04/01 07:33:19;;;;;;;;;5.75;4.00;;;;;11.39;89.31;99785.34;5053917;28;45495;-65
2023/04/01 07:35:58;;;;;;;;;5.00;5.00;;;;;11.36;89.13;99778.41;5053837;28;45524;-65
2023/04/01 07:38:48;;;;;;;;;6.33;5.00;;;;;11.27;89.47;99766.47;5055107;28;45504;-65
2023/04/01 07:41:38;;;;;;;;;5.00;5.00;;;;;11.41;90.50;99789.59;5054097;28;45477;-66
2023/04/01 07:44:11;;;;;;;;;6.00;5.33;;;;;11.33;90.37;99771.47;5049219;28;45508;-66
2023/04/01 07:46:52;;;;;;;;;9.00;6.00;;;;;11.48;89.86;99787.56;5054873;28;45394;-65
2023/04/01 07:49:45;;;;;;;;;5.75;5.75;;;;;11.48;90.06;99801.59;5083378;27;45378;-68
2023/04/01 07:52:35;;;;;;;;;8.00;7.67;;;;;11.42;90.49;99795.75;5113998;27;45373;-65
2023/04/01 07:55:43;;;;;;;;;8.00;5.00;;;;;11.49;90.13;99808.59;5113328;27;45427;-66
2023/04/01 07:58:17;;;;;;;;;6.00;4.00;;;;;11.53;90.11;99808.47;5094832;27;46718;-66
2023/04/01 08:00:59;;;;;;;;;6.00;6.00;;;;;11.55;91.20;99811.91;5094787;27;45495;-65
2023/04/01 08:03:27;;;;;;;;;5.00;5.00;;;;;11.59;90.28;99816.13;5094116;27;45594;-65
2023/04/01 08:06:11;;;;;;;;;6.00;4.25;;;;;11.52;89.76;99806.75;5095949;27;45386;-66
2023/04/01 08:09:02;;;;;;;;;3.00;3.00;;;;;11.40;89.12;99803.72;5092493;27;45531;-66
2023/04/01 08:11:58;;;;;;;;;5.25;4.75;;;;;11.47;89.07;99833.31;5095351;27;45264;-66
2023/04/01 08:14:52;;;;;;;;;7.00;4.00;;;;;11.46;89.84;99835.09;5095053;27;45444;-66
2023/04/01 08:17:41;;;;;;;;;7.50;4.75;;;;;11.46;89.91;99837.72;5093509;27;45506;-65
2023/04/01 08:20:39;;;;;;;;;3.75;3.75;;;;;11.49;89.60;99842.03;5094638;27;46420;-66
2023/04/01 08:23:04;;;;;;;;;5.75;5.75;;;;;11.55;89.42;99843.56;5094831;27;45493;-66
2023/04/01 08:25:32;;;;;;;;;7.00;7.00;;;;;11.57;88.55;99839.06;5098449;27;45447;-66
2023/04/01 08:28:13;;;;;;;;;6.67;5.33;;;;;11.60;89.13;99844.19;5097952;27;45384;-66
2023/04/01 08:30:55;;;;;;;;;6.00;4.67;;;;;11.64;88.70;99851.91;5090641;27;46213;-66
2023/04/01 08:33:25;;;;;;;;;6.67;6.67;;;;;11.71;88.93;99852.53;5099864;27;45480;-65
2023/04/01 08:36:15;;;;;;;;;5.67;5.33;;;;;11.75;89.22;99851.47;5121311;27;45433;-66
2023/04/01 08:38:50;;;;;;;;;4.50;4.50;;;;;11.83;89.12;99867.81;5121960;27;45238;-65
2023/04/01 08:41:51;;;;;;;;;9.75;7.00;;;;;11.90;88.82;99864.94;5121325;27;45557;-65
2023/04/01 08:44:29;;;;;;;;;7.33;6.00;;;;;11.97;87.81;99864.66;5076178;28;45768;-65
2023/04/01 08:47:19;;;;;;;;;5.50;4.00;;;;;12.10;88.12;99867.63;5079047;27;45570;-66
2023/04/01 08:50:21;;;;;;;;;6.00;4.00;;;;;12.29;87.19;99869.47;5080479;27;45446;-66
2023/04/01 08:53:20;;;;;;;;;5.75;5.75;;;;;12.39;86.78;99880.44;5077077;27;46220;-66
2023/04/01 08:56:26;;;;;;;;;3.00;3.00;;;;;12.38;86.12;99878.75;5085171;27;45461;-66
2023/04/01 08:58:51;;;;;;;;;6.00;3.50;;;;;12.34;84.50;99876.25;5068770;27;45359;-66
2023/04/01 09:01:25;;;;;;;;;6.00;4.00;;;;;12.22;85.66;99862.72;5077272;27;45514;-66
2023/04/01 09:03:59;;;;;;;;;5.25;3.00;;;;;12.31;85.04;99891.34;5095545;27;46291;-66
2023/04/01 09:07:00;;;;;;;;;4.00;4.00;;;;;12.29;85.22;99887.94;5096363;27;45434;-66
2023/04/01 09:09:25;;;;;;;;;3.50;3.50;;;;;12.34;84.76;99884.16;5098376;27;45412;-66
2023/04/01 09:11:56;;;;;;;;;3.00;3.00;;;;;12.40;84.64;99890.09;5093365;27;45679;-66
2023/04/01 09:14:30;;;;;;;;;3.00;3.00;;;;;12.43;84.96;99887.31;5073303;27;46797;-66
2023/04/01 09:17:26;;;;;;;;;12.67;10.33;;;;;12.50;84.43;99892.28;5081862;27;45474;-65
2023/04/01 09:20:14;;;;;;;;;3.00;3.00;;;;;12.56;83.24;99891.09;5119507;27;45330;-65
2023/04/01 09:22:59;;;;;;;;;3.00;3.00;;;;;12.57;83.44;99892.84;5121032;27;45504;-65
2023/04/01 09:25:30;;;;;;;;;4.00;4.00;;;;;12.56;83.35;99901.69;5120722;27;45668;-65
2023/04/01 09:28:02;;;;;;;;;4.00;4.00;;;;;12.53;83.08;99894.78;5120994;27;45413;-65
2023/04/01 09:31:14;;;;;;;;;5.00;3.00;;;;;12.53;83.47;99897.41;5121065;27;45400;-66
2023/04/01 09:34:01;;;;;;;;;3.00;3.00;;;;;12.49;82.82;99895.81;5046675;28;45403;-65
2023/04/01 09:36:44;;;;;;;;;2.00;2.00;;;;;12.48;83.09;99904.66;5056354;28;46360;-66
2023/04/01 09:39:30;;;;;;;;;1.00;1.00;;;;;12.54;82.92;99906.19;5057023;28;45490;-66
2023/04/01 09:42:15;;;;;;;;;0.00;0.00;;;;;12.55;83.78;99902.63;5055483;28;45342;-66
2023/04/01 09:44:59;;;;;;;;;13.00;12.67;;;;;12.60;83.16;99902.41;5057324;28;45547;-66
2023/04/01 09:47:33;;;;;;;;;2.00;2.00;;;;;12.53;83.87;99904.47;5051686;28;46228;-66
2023/04/01 09:50:27;;;;;;;;;0.75;0.75;;;;;12.53;84.49;99913.25;5045291;28;45839;-66
2023/04/01 09:53:03;;;;;;;;;1.50;1.50;;;;;12.11;84.29;99850.00;5052042;28;45374;-66
2023/04/01 09:55:29;;;;;;;;;2.00;2.00;;;;;12.43;84.26;99924.28;5057254;28;45274;-65
2023/04/01 09:58:07;;;;;;;;;3.25;3.25;;;;;12.32;84.79;99927.38;5056761;28;46493;-66
2023/04/01 10:00:50;;;;;;;;;3.00;3.00;;;;;12.19;85.67;99933.19;5056871;28;45380;-66
2023/04/01 10:03:40;;;;;;;;;8.00;3.75;;;;;12.19;86.83;99930.53;5056810;28;45448;-66
2023/04/01 10:06:26;;;;;;;;;2.75;2.75;;;;;12.30;87.08;99930.09;5056791;28;45397;-66
2023/04/01 10:09:10;;;;;;;;;4.25;4.00;;;;;12.47;86.04;99929.34;5056382;28;46578;-66
2023/04/01 10:11:38;;;;;;;;;2.50;2.50;;;;;12.58;86.55;99938.59;5118654;27;45544;-66
2023/04/01 10:14:22;;;;;;;;;1.00;1.00;;;;;12.66;85.27;99934.69;5119346;27;45399;-66
2023/04/01 10:17:08;;;;;;;;;1.25;1.25;;;;;12.75;85.53;99938.72;5118359;27;45374;-66
2023/04/01 10:20:02;;;;;;;;;2.00;2.00;;;;;12.81;85.67;99948.13;5119216;27;46489;-66
2023/04/01 10:23:05;;;;;;;;;2.50;2.25;;;;;12.83;85.90;99946.28;5119860;27;45275;-66
2023/04/01 10:25:48;;;;;;;;;2.00;2.00;;;;;12.85;85.54;99953.22;5120016;27;45310;-66
2023/04/01 10:28:55;;;;;;;;;3.50;3.50;;;;;12.86;87.18;99948.78;5108641;27;45518;-66
2023/04/01 10:31:57;;;;;;;;;2.00;2.00;;;;;12.89;85.19;99946.00;5098972;27;45616;-68
2023/04/01 10:35:03;;;;;;;;;2.50;2.50;;;;;12.93;85.30;99952.88;5098751;27;45603;-66
2023/04/01 10:37:46;;;;;;;;;4.25;2.75;;;;;12.97;84.80;99961.50;5099218;27;45265;-66
2023/04/01 10:40:26;;;;;;;;;2.00;2.00;;;;;12.89;85.37;99952.16;5099108;27;45252;-66
2023/04/01 10:43:21;;;;;;;;;0.75;0.25;;;;;12.83;84.74;99955.06;5098985;27;46143;-66
2023/04/01 10:46:24;;;;;;;;;6.00;4.25;;;;;12.83;85.04;99956.84;5098644;27;45193;-66
2023/04/01 10:49:17;;;;;;;;;8.00;5.00;;;;;12.82;86.00;99960.41;5104430;27;45379;-66
2023/04/01 10:52:04;;;;;;;;;3.00;3.00;;;;;12.82;86.51;99965.69;5099022;27;45400;-66
2023/04/01 10:54:45;;;;;;;;;1.75;1.75;;;;;12.87;85.93;99956.63;5098909;27;45433;-66
2023/04/01 10:57:26;;;;;;;;;7.00;2.25;;;;;13.05;86.14;99976.06;5106745;27;45404;-66
2023/04/01 11:00:04;;;;;;;;;2.50;2.50;;;;;13.04;85.66;99966.44;5113704;27;45526;-65
2023/04/01 11:03:02;;;;;;;;;3.00;3.00;;;;;13.08;85.24;99977.72;5119483;27;45229;-65
2023/04/01 11:05:33;;;;;;;;;3.50;3.50;;;;;13.01;84.86;99979.81;5114772;27;46752;-66
2023/04/01 11:08:26;;;;;;;;;3.00;3.00;;;;;12.89;85.20;99977.69;5118962;27;45366;-66
2023/04/01 11:11:17;;;;;;;;;1.75;1.75;;;;;12.69;86.35;99978.56;5119417;27;45300;-65
2023/04/01 11:14:11;;;;;;;;;5.00;5.00;;;;;12.47;86.79;99974.22;5119130;27;45462;-65
2023/04/01 11:17:09;;;;;;;;;2.00;2.00;;;;;12.49;87.87;99992.66;5114262;27;45781;-65
2023/04/01 11:19:52;;;;;;;;;4.75;4.00;;;;;12.42;87.99;99985.94;5115795;27;45425;-66
2023/04/01 11:22:40;;;;;;;;;3.00;3.00;;;;;12.39;87.49;99983.41;5119061;27;45526;-65
2023/04/01 11:25:17;;;;;;;;;3.00;3.00;;;;;12.32;88.13;99993.38;5119022;27;45460;-65
2023/04/01 11:28:17;;;;;;;;;4.67;4.67;;;;;12.38;87.79;99993.13;5117652;27;45497;-65
2023/04/01 11:31:01;;;;;;;;;4.25;4.25;;;;;12.44;87.13;100003.41;5075346;28;45475;-66
2023/04/01 11:34:07;;;;;;;;;4.50;4.50;;;;;12.47;86.71;100005.06;5075329;28;45464;-66
2023/04/01 11:36:38;;;;;;;;;9.75;5.00;;;;;12.51;86.19;100014.59;5075248;28;45537;-66
2023/04/01 11:39:23;;;;;;;;;5.67;4.00;;;;;12.54;87.42;100020.56;5075418;28;46157;-65
2023/04/01 11:42:26;;;;;;;;;6.67;6.00;;;;;12.58;86.47;100021.31;5075250;28;45783;-66
2023/04/01 11:45:08;;;;;;;;;5.00;5.00;;;;;12.57;86.07;100016.09;5075560;28;45359;-66
2023/04/01 11:47:51;;;;;;;;;5.50;4.50;;;;;12.61;86.58;100030.91;5075322;28;45389;-66
2023/04/01 11:50:32;;;;;;;;;6.00;6.00;;;;;12.66;86.10;100032.41;5075323;28;46529;-66
2023/04/01 11:53:12;;;;;;;;;5.75;5.75;;;;;12.65;86.36;100035.97;5074475;28;47161;-65
2023/04/01 11:55:46;;;;;;;;;4.00;4.00;;;;;12.62;86.73;100043.16;5075193;28;45501;-64
2023/04/01 11:58:21;;;;;;;;;7.00;5.33;;;;;12.60;87.06;100045.03;5075785;28;45443;-64
2023/04/01 12:00:49;;;;;;;;;5.00;5.00;;;;;12.60;86.18;100050.31;5078580;28;45386;-65
2023/04/01 12:03:33;;;;;;;;;5.00;4.00;;;;;12.59;86.29;100056.50;5078859;28;45886;-65
2023/04/01 12:06:23;;;;;;;;;3.00;3.00;;;;;12.36;85.76;100013.47;5080100;27;45557;-64
2023/04/01 12:09:19;;;;;;;;;4.00;3.00;;;;;12.63;84.76;100055.44;5101597;27;45433;-65